Time;durP1;ratioP1;P1;durP2;ratioP2;P2;SDS_P1;SDS_P2;PMS_P1;PMS_P2;Temp;Humidity;BMP_temperature;BMP_pressure;BME280_temperature;BME280_humidity;BME280_pressure;Samples;Min_cycle;Max_cycle;Signal;HPM_P1;HPM_P2
2022/04/14 00:02:14;;;;;;;;;;;12.90;99.90;;;;;;5048691;28;20343;-77
2022/04/14 00:04:41;;;;;;;;;;;12.90;99.90;;;;;;5048024;28;20385;-76
2022/04/14 00:07:08;;;;;;;;;;;12.90;99.90;;;;;;5048240;28;20471;-77
2022/04/14 00:09:35;;;;;;;;;;;12.90;99.90;;;;;;5048676;28;19929;-77
2022/04/14 00:12:04;;;;;;;;;;;12.90;99.90;;;;;;5047974;28;20028;-77
2022/04/14 00:14:30;;;;;;;;;;;12.90;99.90;;;;;;5047320;28;19983;-78
2022/04/14 00:16:57;;;;;;;;;;;12.90;99.90;;;;;;5048260;28;19978;-77
2022/04/14 00:19:24;;;;;;;;;;;12.90;99.90;;;;;;5047448;28;19925;-77
2022/04/14 00:21:51;;;;;;;;;;;12.90;99.90;;;;;;5047803;28;19975;-76
2022/04/14 00:24:17;;;;;;;;;;;12.90;99.90;;;;;;5047899;28;19931;-77
2022/04/14 00:26:44;;;;;;;;;;;12.90;99.90;;;;;;5047494;28;19975;-76
2022/04/14 00:29:12;;;;;;;;;;;12.90;99.90;;;;;;5047375;28;19925;-78
2022/04/14 00:31:39;;;;;;;;;;;12.90;99.90;;;;;;5047808;28;19925;-77
2022/04/14 00:34:06;;;;;;;;;;;12.90;99.90;;;;;;5047870;28;19979;-78
2022/04/14 00:36:33;;;;;;;;;;;12.80;99.90;;;;;;5047523;28;19986;-77
2022/04/14 00:39:00;;;;;;;;;;;12.80;99.90;;;;;;5047311;28;19925;-77
2022/04/14 00:41:27;;;;;;;;;;;12.80;99.90;;;;;;5047444;28;19932;-77
2022/04/14 00:43:54;;;;;;;;;;;12.80;99.90;;;;;;5048565;28;19996;-77
2022/04/14 00:46:23;;;;;;;;;;;12.80;99.90;;;;;;5051202;28;19925;-78
2022/04/14 00:48:50;;;;;;;;;;;12.80;99.90;;;;;;5053862;28;19948;-77
2022/04/14 00:51:17;;;;;;;;;;;12.80;99.90;;;;;;5051889;28;20392;-78
2022/04/14 00:53:44;;;;;;;;;;;12.70;99.90;;;;;;5052926;28;19932;-78
2022/04/14 00:56:10;;;;;;;;;;;12.70;99.90;;;;;;5051817;28;19925;-77
2022/04/14 00:58:37;;;;;;;;;;;12.70;99.90;;;;;;5052048;28;20277;-78
2022/04/14 01:01:05;;;;;;;;;;;12.60;99.90;;;;;;5054841;28;19948;-79
2022/04/14 01:03:34;;;;;;;;;;;12.60;99.90;;;;;;5055401;28;19924;-78
2022/04/14 01:06:01;;;;;;;;;;;12.60;99.90;;;;;;5049228;28;19927;-76
2022/04/14 01:08:28;;;;;;;;;;;12.70;99.90;;;;;;5046535;28;19991;-76
2022/04/14 01:10:56;;;;;;;;;;;12.60;99.90;;;;;;5046306;28;20377;-76
2022/04/14 01:13:22;;;;;;;;;;;12.60;99.90;;;;;;5030285;28;19929;-76
2022/04/14 01:15:49;;;;;;;;;;;12.60;99.90;;;;;;5047164;28;20290;-76
2022/04/14 01:18:16;;;;;;;;;;;12.50;99.90;;;;;;5046551;28;19933;-77
2022/04/14 01:20:45;;;;;;;;;;;12.50;99.90;;;;;;5046336;28;20348;-76
2022/04/14 01:23:12;;;;;;;;;;;12.50;99.90;;;;;;5046751;28;19925;-78
2022/04/14 01:25:40;;;;;;;;;;;12.50;99.90;;;;;;5046733;28;19925;-77
2022/04/14 01:28:07;;;;;;;;;;;12.50;99.90;;;;;;5046761;28;20339;-76
2022/04/14 01:30:35;;;;;;;;;;;12.50;99.90;;;;;;5046419;28;19955;-76
2022/04/14 01:33:02;;;;;;;;;;;12.50;99.90;;;;;;5046916;28;19932;-76
2022/04/14 01:35:29;;;;;;;;;;;12.50;99.90;;;;;;5046465;28;19925;-77
2022/04/14 01:37:55;;;;;;;;;;;12.50;99.90;;;;;;5046682;28;19952;-77
2022/04/14 01:40:22;;;;;;;;;;;12.50;99.90;;;;;;5046138;28;19925;-76
2022/04/14 01:42:51;;;;;;;;;;;12.50;99.90;;;;;;5046050;28;19952;-76
2022/04/14 01:45:17;;;;;;;;;;;12.50;99.90;;;;;;5046448;28;19934;-77
2022/04/14 01:47:45;;;;;;;;;;;12.50;99.90;;;;;;5046347;28;19932;-77
2022/04/14 01:50:13;;;;;;;;;;;12.40;99.90;;;;;;5046146;28;19925;-77
2022/04/14 01:52:40;;;;;;;;;;;12.40;99.90;;;;;;5046224;28;19925;-76
2022/04/14 01:55:08;;;;;;;;;;;12.40;99.90;;;;;;5046274;28;20277;-76
2022/04/14 01:57:34;;;;;;;;;;;12.40;99.90;;;;;;5046734;28;19956;-76
2022/04/14 02:00:06;;;;;;;;;;;12.40;99.90;;;;;;5046298;28;19925;-77
2022/04/14 02:02:33;;;;;;;;;;;12.40;99.90;;;;;;5046496;28;19925;-76
2022/04/14 02:04:59;;;;;;;;;;;12.40;99.90;;;;;;5045741;28;19968;-78
2022/04/14 02:07:26;;;;;;;;;;;12.40;99.90;;;;;;5046246;28;19929;-77
2022/04/14 02:09:53;;;;;;;;;;;12.40;99.90;;;;;;5045993;28;19925;-76
2022/04/14 02:12:19;;;;;;;;;;;12.40;99.90;;;;;;5049192;28;19929;-77
2022/04/14 02:14:46;;;;;;;;;;;12.40;99.90;;;;;;5049919;28;19932;-76
2022/04/14 02:17:15;;;;;;;;;;;12.30;99.90;;;;;;5049726;28;19932;-76
2022/04/14 02:19:41;;;;;;;;;;;12.30;99.90;;;;;;5050150;28;20020;-76
2022/04/14 02:22:08;;;;;;;;;;;12.30;99.90;;;;;;5085817;22;19940;-73
2022/04/14 02:24:35;;;;;;;;;;;12.30;99.90;;;;;;5036693;28;19931;-73
2022/04/14 02:27:01;;;;;;;;;;;12.40;99.90;;;;;;5037102;28;20014;-73
2022/04/14 02:29:28;;;;;;;;;;;12.40;99.90;;;;;;5054325;28;19924;-73
2022/04/14 02:31:57;;;;;;;;;;;12.30;99.90;;;;;;5043371;28;20392;-73
2022/04/14 02:34:26;;;;;;;;;;;12.30;99.90;;;;;;5053580;28;19925;-74
2022/04/14 02:36:53;;;;;;;;;;;12.30;99.90;;;;;;5053520;28;19928;-73
2022/04/14 02:39:20;;;;;;;;;;;12.20;99.90;;;;;;5053038;28;19975;-72
2022/04/14 02:41:46;;;;;;;;;;;12.20;99.90;;;;;;5053261;28;19925;-72
2022/04/14 02:44:13;;;;;;;;;;;12.20;99.90;;;;;;5052234;28;19947;-73
2022/04/14 02:46:40;;;;;;;;;;;12.20;99.90;;;;;;5053363;28;19925;-72
2022/04/14 02:49:07;;;;;;;;;;;12.20;99.90;;;;;;5052983;28;19929;-73
2022/04/14 02:51:35;;;;;;;;;;;12.20;99.90;;;;;;5052933;28;20408;-73
2022/04/14 02:54:02;;;;;;;;;;;12.20;99.90;;;;;;5052967;28;19925;-73
2022/04/14 02:56:29;;;;;;;;;;;12.20;99.90;;;;;;5052872;28;20327;-73
2022/04/14 02:58:55;;;;;;;;;;;12.20;99.90;;;;;;5052315;28;19932;-73
2022/04/14 03:01:22;;;;;;;;;;;12.20;99.90;;;;;;5052691;28;20351;-73
2022/04/14 03:03:49;;;;;;;;;;;12.10;99.90;;;;;;5051605;28;19931;-73
2022/04/14 03:06:16;;;;;;;;;;;12.10;99.90;;;;;;5052636;28;19931;-73
2022/04/14 03:08:44;;;;;;;;;;;12.10;99.90;;;;;;5052598;28;19931;-73
2022/04/14 03:11:12;;;;;;;;;;;12.10;99.90;;;;;;5052146;28;19931;-73
2022/04/14 03:13:39;;;;;;;;;;;12.10;99.90;;;;;;5052730;28;19947;-73
2022/04/14 03:16:06;;;;;;;;;;;12.10;99.90;;;;;;5052872;28;19925;-73
2022/04/14 03:18:33;;;;;;;;;;;12.20;99.90;;;;;;5052419;28;19925;-73
2022/04/14 03:20:59;;;;;;;;;;;12.20;99.90;;;;;;5051821;28;20334;-74
2022/04/14 03:23:26;;;;;;;;;;;12.10;99.90;;;;;;5052057;28;19924;-73
2022/04/14 03:25:55;;;;;;;;;;;12.10;99.90;;;;;;5052518;28;19932;-73
2022/04/14 03:28:21;;;;;;;;;;;12.10;99.90;;;;;;5051751;28;19925;-73
2022/04/14 03:30:48;;;;;;;;;;;12.00;99.90;;;;;;5051938;28;19929;-72
2022/04/14 03:33:15;;;;;;;;;;;12.10;99.90;;;;;;5052207;28;19929;-73
2022/04/14 03:35:42;;;;;;;;;;;12.00;99.90;;;;;;5051954;28;19925;-73
2022/04/14 03:38:08;;;;;;;;;;;12.00;99.90;;;;;;5052116;28;19928;-73
2022/04/14 03:40:35;;;;;;;;;;;11.90;99.90;;;;;;5051758;28;19933;-74
2022/04/14 03:43:03;;;;;;;;;;;11.90;99.90;;;;;;5051048;28;19929;-73
2022/04/14 03:45:30;;;;;;;;;;;11.90;99.90;;;;;;5051949;28;20343;-71
2022/04/14 03:47:57;;;;;;;;;;;11.90;99.90;;;;;;5051761;28;19975;-72
2022/04/14 03:50:24;;;;;;;;;;;11.90;99.90;;;;;;5051027;28;19928;-73
2022/04/14 03:52:50;;;;;;;;;;;12.00;99.90;;;;;;5051381;28;19952;-73
2022/04/14 03:55:17;;;;;;;;;;;12.00;99.90;;;;;;5050921;28;19933;-73
2022/04/14 03:57:44;;;;;;;;;;;11.90;99.90;;;;;;5052031;28;19924;-73
2022/04/14 04:00:13;;;;;;;;;;;11.90;99.90;;;;;;5051958;28;19925;-73
2022/04/14 04:02:40;;;;;;;;;;;11.90;99.90;;;;;;5051754;28;19932;-73
2022/04/14 04:05:07;;;;;;;;;;;11.90;99.90;;;;;;5051617;28;20027;-72
2022/04/14 04:07:34;;;;;;;;;;;11.90;99.90;;;;;;5051941;28;19925;-73
2022/04/14 04:10:01;;;;;;;;;;;11.90;99.90;;;;;;5051663;28;19929;-73
2022/04/14 04:12:28;;;;;;;;;;;11.80;99.90;;;;;;5051453;28;19925;-73
2022/04/14 04:14:54;;;;;;;;;;;11.80;99.90;;;;;;5051600;28;19925;-73
2022/04/14 04:17:23;;;;;;;;;;;11.80;99.90;;;;;;5051658;28;19931;-73
2022/04/14 04:19:50;;;;;;;;;;;11.80;99.90;;;;;;5051153;28;19994;-74
2022/04/14 04:22:16;;;;;;;;;;;11.80;99.90;;;;;;5051513;28;20380;-72
2022/04/14 04:24:43;;;;;;;;;;;11.70;99.90;;;;;;5051402;28;19928;-73
2022/04/14 04:27:10;;;;;;;;;;;11.80;99.90;;;;;;5051289;28;19929;-73
2022/04/14 04:29:37;;;;;;;;;;;11.80;99.90;;;;;;5051196;28;19925;-74
2022/04/14 04:32:04;;;;;;;;;;;11.80;99.90;;;;;;5051146;28;19925;-73
2022/04/14 04:34:32;;;;;;;;;;;11.80;99.90;;;;;;5050421;28;19925;-73
2022/04/14 04:36:59;;;;;;;;;;;11.80;99.90;;;;;;5051420;28;19925;-73
2022/04/14 04:39:25;;;;;;;;;;;11.80;99.90;;;;;;5051070;28;20031;-73
2022/04/14 04:41:52;;;;;;;;;;;11.70;99.90;;;;;;5051028;28;19929;-73
2022/04/14 04:44:19;;;;;;;;;;;11.70;99.90;;;;;;5051145;28;19952;-73
2022/04/14 04:46:46;;;;;;;;;;;11.70;99.90;;;;;;5050999;28;19974;-74
2022/04/14 04:49:13;;;;;;;;;;;11.70;99.90;;;;;;5051179;28;19925;-73
2022/04/14 04:51:41;;;;;;;;;;;11.70;99.90;;;;;;5050960;28;20035;-74
2022/04/14 04:54:08;;;;;;;;;;;11.70;99.90;;;;;;5050684;28;19925;-73
2022/04/14 04:56:35;;;;;;;;;;;11.70;99.90;;;;;;5051214;28;20031;-71
2022/04/14 04:59:02;;;;;;;;;;;11.70;99.90;;;;;;5050974;28;20297;-74
2022/04/14 05:01:28;;;;;;;;;;;11.70;99.90;;;;;;5047948;28;19928;-73
2022/04/14 05:03:55;;;;;;;;;;;11.70;99.90;;;;;;5051811;28;19929;-73
2022/04/14 05:06:22;;;;;;;;;;;11.70;99.90;;;;;;5083331;28;19925;-73
2022/04/14 05:08:50;;;;;;;;;;;11.70;99.90;;;;;;5050338;28;19932;-72
2022/04/14 05:11:17;;;;;;;;;;;11.70;99.90;;;;;;5050280;28;19925;-73
2022/04/14 05:13:44;;;;;;;;;;;11.70;99.90;;;;;;5050177;28;19936;-73
2022/04/14 05:16:11;;;;;;;;;;;11.70;99.90;;;;;;5050193;28;19933;-73
2022/04/14 05:18:39;;;;;;;;;;;11.70;99.90;;;;;;5050703;28;20404;-73
2022/04/14 05:21:05;;;;;;;;;;;11.60;99.90;;;;;;5050764;28;19947;-73
2022/04/14 05:23:32;;;;;;;;;;;11.60;99.90;;;;;;5050856;28;19975;-74
2022/04/14 05:26:00;;;;;;;;;;;11.60;99.90;;;;;;5051232;28;19932;-74
2022/04/14 05:28:27;;;;;;;;;;;11.60;99.90;;;;;;5048271;28;19928;-74
2022/04/14 05:30:54;;;;;;;;;;;11.60;99.90;;;;;;5047058;28;19925;-74
2022/04/14 05:33:21;;;;;;;;;;;11.50;99.90;;;;;;5031444;28;19962;-74
2022/04/14 05:35:47;;;;;;;;;;;11.50;99.90;;;;;;5031309;28;20403;-74
2022/04/14 05:38:14;;;;;;;;;;;11.50;99.90;;;;;;5031721;28;19932;-74
2022/04/14 05:40:43;;;;;;;;;;;11.50;99.90;;;;;;5064210;28;20332;-74
2022/04/14 05:43:16;;;;;;;;;;;11.60;99.90;;;;;;5031128;28;19925;-74
2022/04/14 05:45:44;;;;;;;;;;;11.60;99.90;;;;;;5030064;28;20123;-74
2022/04/14 05:48:13;;;;;;;;;;;11.60;99.90;;;;;;5031359;28;19968;-73
2022/04/14 05:50:40;;;;;;;;;;;11.60;99.90;;;;;;5029990;28;19933;-73
2022/04/14 05:53:07;;;;;;;;;;;11.70;99.90;;;;;;5030043;28;19933;-74
2022/04/14 05:55:33;;;;;;;;;;;11.70;99.90;;;;;;5030752;28;19925;-73
2022/04/14 05:58:00;;;;;;;;;;;11.70;99.90;;;;;;5047812;28;19929;-74
2022/04/14 06:00:28;;;;;;;;;;;11.80;99.90;;;;;;5046283;28;19932;-74
2022/04/14 06:02:56;;;;;;;;;;;11.80;99.90;;;;;;5046232;28;19925;-73
2022/04/14 06:05:25;;;;;;;;;;;11.80;99.90;;;;;;5065909;28;20047;-73
2022/04/14 06:07:51;;;;;;;;;;;11.70;99.90;;;;;;5049850;28;19936;-73
2022/04/14 06:10:18;;;;;;;;;;;11.70;99.90;;;;;;5050183;28;19947;-75
2022/04/14 06:12:45;;;;;;;;;;;11.70;99.90;;;;;;5043657;28;19948;-76
2022/04/14 06:15:12;;;;;;;;;;;11.80;99.90;;;;;;5041914;28;19972;-75
2022/04/14 06:17:42;;;;;;;;;;;11.80;99.90;;;;;;5034783;28;20411;-75
2022/04/14 06:20:09;;;;;;;;;;;11.90;99.90;;;;;;5039025;28;20032;-75
2022/04/14 06:22:37;;;;;;;;;;;11.90;99.90;;;;;;5046850;28;19932;-76
2022/04/14 06:25:04;;;;;;;;;;;11.80;99.90;;;;;;5051095;28;19928;-74
2022/04/14 06:27:31;;;;;;;;;;;11.80;99.90;;;;;;5050133;28;19928;-74
2022/04/14 06:29:57;;;;;;;;;;;11.70;99.90;;;;;;5049845;28;19925;-72
2022/04/14 06:32:24;;;;;;;;;;;11.70;99.90;;;;;;5048804;28;20289;-73
2022/04/14 06:34:53;;;;;;;;;;;11.70;99.90;;;;;;5049364;28;19933;-73
2022/04/14 06:37:19;;;;;;;;;;;11.70;99.90;;;;;;5049462;28;20083;-74
2022/04/14 06:39:46;;;;;;;;;;;11.70;99.90;;;;;;5049277;28;19971;-74
2022/04/14 06:42:13;;;;;;;;;;;11.70;99.90;;;;;;5049503;28;19932;-74
2022/04/14 06:44:40;;;;;;;;;;;11.80;99.90;;;;;;5049288;28;19928;-73
2022/04/14 06:47:07;;;;;;;;;;;11.80;99.90;;;;;;5049501;28;19925;-73
2022/04/14 06:49:33;;;;;;;;;;;11.80;99.90;;;;;;5083071;28;19940;-74
2022/04/14 06:52:03;;;;;;;;;;;11.80;99.90;;;;;;5049602;28;19925;-74
2022/04/14 06:54:30;;;;;;;;;;;11.90;99.90;;;;;;5049376;28;20462;-73
2022/04/14 06:56:56;;;;;;;;;;;11.90;99.90;;;;;;5050053;28;19948;-73
2022/04/14 06:59:23;;;;;;;;;;;12.00;99.90;;;;;;5052845;28;20007;-74
2022/04/14 07:01:50;;;;;;;;;;;12.10;99.90;;;;;;5052854;28;19932;-74
2022/04/14 07:04:17;;;;;;;;;;;12.10;99.90;;;;;;5052760;28;19929;-74
2022/04/14 07:06:44;;;;;;;;;;;12.20;99.90;;;;;;5086430;28;19928;-74
2022/04/14 07:09:13;;;;;;;;;;;12.20;99.90;;;;;;5052506;28;19929;-75
2022/04/14 07:11:40;;;;;;;;;;;12.20;99.90;;;;;;5052627;28;20462;-74
2022/04/14 07:14:06;;;;;;;;;;;12.30;99.90;;;;;;5086062;28;19932;-73
2022/04/14 07:16:33;;;;;;;;;;;12.30;99.90;;;;;;5052506;28;19925;-74
2022/04/14 07:19:00;;;;;;;;;;;12.40;99.90;;;;;;5052692;28;19928;-72
2022/04/14 07:21:27;;;;;;;;;;;12.50;99.90;;;;;;5052710;28;19943;-74
2022/04/14 07:23:53;;;;;;;;;;;12.60;99.90;;;;;;5052362;28;19929;-74
2022/04/14 07:26:22;;;;;;;;;;;12.60;99.90;;;;;;5052493;28;20335;-74
2022/04/14 07:28:48;;;;;;;;;;;12.70;99.90;;;;;;5052207;28;19929;-74
2022/04/14 07:31:15;;;;;;;;;;;12.70;99.90;;;;;;5052721;28;19974;-74
2022/04/14 07:33:42;;;;;;;;;;;12.80;99.90;;;;;;5052177;28;19928;-75
2022/04/14 07:36:09;;;;;;;;;;;12.90;99.90;;;;;;5051895;28;19925;-75
2022/04/14 07:38:36;;;;;;;;;;;12.90;99.90;;;;;;5080869;28;20335;-75
2022/04/14 07:41:05;;;;;;;;;;;12.90;99.90;;;;;;5035099;28;19937;-75
2022/04/14 07:43:33;;;;;;;;;;;13.00;99.90;;;;;;5032016;28;20419;-75
2022/04/14 07:46:01;;;;;;;;;;;13.10;99.90;;;;;;5032442;28;19925;-74
2022/04/14 07:48:27;;;;;;;;;;;13.20;99.90;;;;;;5032162;28;19944;-75
2022/04/14 07:50:54;;;;;;;;;;;13.30;99.90;;;;;;5031913;28;20486;-75
2022/04/14 07:53:21;;;;;;;;;;;13.40;99.90;;;;;;5037112;28;19925;-75
2022/04/14 07:55:48;;;;;;;;;;;13.40;99.90;;;;;;5037234;28;19929;-75
2022/04/14 07:58:14;;;;;;;;;;;13.50;99.90;;;;;;5048978;28;19932;-74
2022/04/14 08:00:45;;;;;;;;;;;13.60;99.90;;;;;;5045386;28;19925;-74
2022/04/14 08:03:11;;;;;;;;;;;13.70;99.90;;;;;;5085271;28;19959;-74
2022/04/14 08:05:39;;;;;;;;;;;13.80;99.90;;;;;;5051546;28;19925;-75
2022/04/14 08:08:07;;;;;;;;;;;13.90;99.90;;;;;;5051402;28;19925;-74
2022/04/14 08:10:34;;;;;;;;;;;14.00;99.90;;;;;;5050778;28;19972;-74
2022/04/14 08:13:01;;;;;;;;;;;14.10;99.90;;;;;;5051725;28;19924;-74
2022/04/14 08:15:28;;;;;;;;;;;14.20;99.90;;;;;;5051502;28;19932;-74
2022/04/14 08:17:57;;;;;;;;;;;14.20;99.90;;;;;;5051579;28;20364;-74
2022/04/14 08:20:24;;;;;;;;;;;14.30;99.90;;;;;;5051254;28;19929;-74
2022/04/14 08:22:53;;;;;;;;;;;14.40;99.90;;;;;;5051286;28;19925;-74
2022/04/14 08:25:22;;;;;;;;;;;14.40;99.90;;;;;;5051098;28;19925;-74
2022/04/14 08:27:49;;;;;;;;;;;14.50;99.90;;;;;;5051258;28;19960;-74
2022/04/14 08:30:16;;;;;;;;;;;14.60;99.90;;;;;;5051347;28;19958;-74
2022/04/14 08:32:44;;;;;;;;;;;14.70;99.90;;;;;;5051145;28;19929;-74
2022/04/14 08:35:13;;;;;;;;;;;14.80;99.90;;;;;;5051130;28;19925;-74
2022/04/14 08:37:40;;;;;;;;;;;14.80;99.90;;;;;;5051281;28;19925;-74
2022/04/14 08:40:08;;;;;;;;;;;14.80;99.90;;;;;;5084692;28;19924;-74
2022/04/14 08:42:37;;;;;;;;;;;14.80;99.90;;;;;;5051189;28;19928;-74
2022/04/14 08:45:05;;;;;;;;;;;14.90;99.90;;;;;;5050909;28;19928;-74
2022/04/14 08:47:32;;;;;;;;;;;15.00;99.90;;;;;;5050856;28;19928;-74
2022/04/14 08:50:00;;;;;;;;;;;15.10;99.90;;;;;;5050499;28;19932;-74
2022/04/14 08:52:28;;;;;;;;;;;15.30;99.90;;;;;;5050629;28;19925;-74
2022/04/14 08:54:55;;;;;;;;;;;15.30;99.90;;;;;;5050684;28;19931;-74
2022/04/14 08:57:23;;;;;;;;;;;15.30;99.90;;;;;;5050847;28;19924;-74
2022/04/14 08:59:50;;;;;;;;;;;15.30;99.90;;;;;;5050557;28;19925;-74
2022/04/14 09:02:18;;;;;;;;;;;15.40;99.90;;;;;;5050667;28;19925;-74
2022/04/14 09:04:46;;;;;;;;;;;15.40;99.90;;;;;;5050291;28;19929;-74
2022/04/14 09:07:13;;;;;;;;;;;15.50;99.90;;;;;;5050850;28;19928;-74
2022/04/14 09:09:41;;;;;;;;;;;15.50;99.90;;;;;;5050355;28;19932;-74
2022/04/14 09:12:08;;;;;;;;;;;15.70;99.90;;;;;;5050526;28;19925;-74
2022/04/14 09:14:35;;;;;;;;;;;15.70;99.90;;;;;;5050144;28;19929;-74
2022/04/14 09:17:03;;;;;;;;;;;15.80;99.90;;;;;;5050281;28;19924;-73
2022/04/14 09:19:30;;;;;;;;;;;15.90;99.90;;;;;;5050188;28;20005;-73
2022/04/14 09:21:57;;;;;;;;;;;16.10;99.90;;;;;;5050242;28;19925;-73
2022/04/14 09:24:38;;;;;;;;;;;16.20;99.90;;;;;;5050091;28;20312;-73
2022/04/14 09:27:06;;;;;;;;;;;16.20;99.90;;;;;;5050275;28;19929;-73
2022/04/14 09:29:33;;;;;;;;;;;16.30;99.90;;;;;;5049759;28;19928;-73
2022/04/14 09:32:00;;;;;;;;;;;16.50;99.90;;;;;;5050085;28;19925;-73
2022/04/14 09:34:44;;;;;;;;;;;16.70;99.90;;;;;;5049904;28;19929;-74
2022/04/14 09:37:11;;;;;;;;;;;16.70;99.90;;;;;;5050259;28;19925;-73
2022/04/14 09:39:51;;;;;;;;;;;16.80;99.90;;;;;;5049809;28;20308;-73
2022/04/14 09:42:20;;;;;;;;;;;17.10;99.90;;;;;;5049874;28;20023;-73
2022/04/14 09:44:48;;;;;;;;;;;17.10;99.90;;;;;;5049974;28;20373;-73
2022/04/14 09:47:22;;;;;;;;;;;17.20;99.90;;;;;;5050094;28;19928;-73
2022/04/14 09:49:49;;;;;;;;;;;17.20;99.90;;;;;;5050144;28;19924;-73
2022/04/14 09:52:16;;;;;;;;;;;17.40;99.90;;;;;;5050035;28;19991;-73
2022/04/14 09:54:44;;;;;;;;;;;17.30;99.90;;;;;;5049592;28;19931;-73
2022/04/14 09:57:12;;;;;;;;;;;17.30;99.90;;;;;;5050228;28;19931;-74
2022/04/14 09:59:40;;;;;;;;;;;17.40;99.90;;;;;;5050341;28;19925;-74
2022/04/14 10:02:09;;;;;;;;;;;17.40;99.90;;;;;;5050221;28;19964;-74
2022/04/14 10:04:36;;;;;;;;;;;17.30;99.90;;;;;;5049617;28;19925;-73
2022/04/14 10:07:05;;;;;;;;;;;17.30;99.90;;;;;;5049934;28;19929;-74
2022/04/14 10:09:33;;;;;;;;;;;17.20;99.90;;;;;;5049810;28;19932;-73
2022/04/14 10:12:00;;;;;;;;;;;17.30;99.90;;;;;;5048618;28;20396;-74
2022/04/14 10:14:26;;;;;;;;;;;17.40;99.90;;;;;;5038285;28;19925;-75
2022/04/14 10:16:57;;;;;;;;;;;17.70;99.90;;;;;;5038910;28;20404;-74
2022/04/14 10:19:24;;;;;;;;;;;17.70;99.90;;;;;;5043412;28;20303;-73
2022/04/14 10:21:51;;;;;;;;;;;17.70;99.90;;;;;;5049768;28;19924;-74
2022/04/14 10:24:19;;;;;;;;;;;17.70;99.90;;;;;;5049568;28;19928;-74
2022/04/14 10:26:46;;;;;;;;;;;17.60;99.90;;;;;;5050137;28;19925;-74
2022/04/14 10:29:14;;;;;;;;;;;17.80;99.90;;;;;;5049726;28;19931;-76
2022/04/14 10:31:42;;;;;;;;;;;18.00;99.90;;;;;;5050107;28;20316;-74
2022/04/14 10:34:11;;;;;;;;;;;18.30;99.90;;;;;;5053520;28;19948;-74
2022/04/14 10:36:39;;;;;;;;;;;18.60;99.90;;;;;;5053660;28;19975;-75
2022/04/14 10:39:06;;;;;;;;;;;18.90;99.90;;;;;;5053256;28;19955;-74
2022/04/14 10:41:36;;;;;;;;;;;19.10;99.90;;;;;;5053647;28;20392;-74
2022/04/14 10:44:03;;;;;;;;;;;19.00;99.90;;;;;;5053267;28;19925;-74
2022/04/14 10:46:31;;;;;;;;;;;18.90;99.90;;;;;;5053435;28;19929;-74
2022/04/14 10:49:12;;;;;;;;;;;19.10;99.90;;;;;;5048894;28;19972;-74
2022/04/14 10:51:39;;;;;;;;;;;19.00;99.90;;;;;;5051205;28;20388;-74
2022/04/14 10:54:06;;;;;;;;;;;19.00;99.90;;;;;;5052458;28;19928;-74
2022/04/14 10:56:42;;;;;;;;;;;18.70;99.90;;;;;;5052244;28;19931;-74
2022/04/14 10:59:11;;;;;;;;;;;18.80;99.90;;;;;;5042335;28;19933;-74
2022/04/14 11:01:51;;;;;;;;;;;19.00;99.90;;;;;;5052905;28;20334;-74
2022/04/14 11:04:30;;;;;;;;;;;19.40;99.90;;;;;;5052917;28;19940;-74
2022/04/14 11:06:59;;;;;;;;;;;19.50;99.90;;;;;;5052774;28;19924;-74
2022/04/14 11:09:44;;;;;;;;;;;19.60;99.90;;;;;;5042724;28;19931;-75
2022/04/14 11:12:12;;;;;;;;;;;19.70;99.90;;;;;;5045260;28;19925;-74
2022/04/14 11:14:39;;;;;;;;;;;19.50;99.90;;;;;;5053078;28;19925;-74
2022/04/14 11:17:05;;;;;;;;;;;19.90;99.90;;;;;;5053104;28;19929;-74
2022/04/14 11:19:34;;;;;;;;;;;20.00;99.90;;;;;;5051735;28;19924;-74
2022/04/14 11:22:01;;;;;;;;;;;20.10;99.90;;;;;;5068486;28;19971;-74
2022/04/14 11:24:38;;;;;;;;;;;20.10;99.90;;;;;;5052326;28;19925;-74
2022/04/14 11:27:09;;;;;;;;;;;20.20;99.90;;;;;;5052772;28;20110;-74
2022/04/14 11:29:35;;;;;;;;;;;20.40;99.90;;;;;;5051927;28;19928;-75
2022/04/14 11:32:02;;;;;;;;;;;20.80;99.90;;;;;;5052178;28;19925;-75
2022/04/14 11:34:34;;;;;;;;;;;21.10;99.90;;;;;;5052257;28;19925;-75
2022/04/14 11:37:01;;;;;;;;;;;20.90;99.90;;;;;;5052580;28;19924;-74
2022/04/14 11:39:29;;;;;;;;;;;20.70;99.90;;;;;;5052299;28;19947;-74
2022/04/14 11:41:58;;;;;;;;;;;20.10;99.90;;;;;;5052088;28;19925;-74
2022/04/14 11:44:27;;;;;;;;;;;19.70;99.90;;;;;;5050570;28;19925;-74
2022/04/14 11:46:55;;;;;;;;;;;19.60;99.90;;;;;;5052251;28;19925;-74
2022/04/14 11:49:22;;;;;;;;;;;19.30;99.90;;;;;;5052094;28;19929;-74
2022/04/14 11:51:51;;;;;;;;;;;19.10;99.90;;;;;;5051268;28;19929;-74
2022/04/14 11:54:22;;;;;;;;;;;18.90;99.90;;;;;;5077155;28;19929;-74
2022/04/14 11:56:52;;;;;;;;;;;19.10;99.90;;;;;;5049035;28;19928;-74
2022/04/14 11:59:19;;;;;;;;;;;19.20;99.90;;;;;;5051589;28;19932;-74
2022/04/14 12:01:50;;;;;;;;;;;19.30;99.90;;;;;;5051794;28;19940;-74
2022/04/14 12:04:17;;;;;;;;;;;19.60;99.90;;;;;;5077264;28;20012;-74
2022/04/14 12:06:56;;;;;;;;;;;19.70;99.90;;;;;;5051298;28;19929;-74
2022/04/14 12:09:24;;;;;;;;;;;19.80;99.90;;;;;;5063772;28;19925;-74
2022/04/14 12:11:51;;;;;;;;;;;19.90;99.90;;;;;;5051495;28;19936;-74
2022/04/14 12:14:17;;;;;;;;;;;20.00;99.90;;;;;;5050990;28;19924;-74
2022/04/14 12:16:48;;;;;;;;;;;19.70;99.90;;;;;;5074969;28;20043;-73
2022/04/14 12:19:15;;;;;;;;;;;19.60;99.90;;;;;;5050908;28;19925;-73
2022/04/14 12:21:41;;;;;;;;;;;19.20;99.90;;;;;;5050648;28;19924;-74
2022/04/14 12:24:09;;;;;;;;;;;19.30;99.90;;;;;;5051108;28;19925;-74
2022/04/14 12:26:40;;;;;;;;;;;19.40;99.90;;;;;;5036766;28;19936;-74
2022/04/14 12:29:10;;;;;;;;;;;20.20;99.90;;;;;;5031642;28;19933;-73
2022/04/14 12:31:37;;;;;;;;;;;21.40;99.90;;;;;;5031338;28;20408;-74
2022/04/14 12:34:03;;;;;;;;;;;22.30;99.90;;;;;;5031070;28;19979;-74
2022/04/14 12:36:34;;;;;;;;;;;22.70;99.90;;;;;;5031221;28;20000;-74
2022/04/14 12:39:04;;;;;;;;;;;23.90;99.90;;;;;;5031063;28;19925;-73
2022/04/14 12:41:37;;;;;;;;;;;24.80;99.90;;;;;;5031768;28;19925;-74
2022/04/14 12:44:05;;;;;;;;;;;24.90;99.90;;;;;;5030904;28;19925;-74
2022/04/14 12:46:36;;;;;;;;;;;25.00;99.90;;;;;;5031394;28;20381;-79
2022/04/14 12:49:04;;;;;;;;;;;23.80;99.90;;;;;;5031178;28;19972;-74
2022/04/14 12:51:32;;;;;;;;;;;22.20;99.90;;;;;;5030657;28;20389;-74
2022/04/14 12:54:00;;;;;;;;;;;22.10;99.90;;;;;;5031235;28;20286;-74
2022/04/14 12:56:27;;;;;;;;;;;22.30;99.90;;;;;;5043017;28;19936;-74
2022/04/14 12:59:08;;;;;;;;;;;22.30;99.90;;;;;;5042377;28;19929;-73
2022/04/14 13:01:44;;;;;;;;;;;21.90;99.90;;;;;;5049964;28;20354;-73
2022/04/14 13:04:11;;;;;;;;;;;22.10;99.90;;;;;;5050311;28;19925;-73
2022/04/14 13:06:38;;;;;;;;;;;21.90;99.90;;;;;;5050713;28;19924;-73
2022/04/14 13:09:13;;;;;;;;;;;21.60;99.90;;;;;;5049854;28;19987;-73
2022/04/14 13:11:40;;;;;;;;;;;20.90;99.90;;;;;;5050215;28;19932;-73
2022/04/14 13:14:19;;;;;;;;;;;20.20;99.90;;;;;;5049967;28;20035;-73
2022/04/14 13:16:46;;;;;;;;;;;20.00;99.90;;;;;;5050819;28;19925;-73
2022/04/14 13:19:13;;;;;;;;;;;19.50;99.90;;;;;;5050058;28;19928;-73
2022/04/14 13:21:40;;;;;;;;;;;19.30;99.90;;;;;;5050335;28;19928;-73
2022/04/14 13:24:07;;;;;;;;;;;19.20;99.90;;;;;;5049833;28;20158;-72
2022/04/14 13:26:34;;;;;;;;;;;19.10;99.90;;;;;;5050323;28;19928;-73
2022/04/14 13:29:01;;;;;;;;;;;19.10;99.90;;;;;;5083765;28;19925;-72
2022/04/14 13:31:29;;;;;;;;;;;19.40;99.90;;;;;;5050112;28;19980;-73
2022/04/14 13:33:56;;;;;;;;;;;19.50;99.90;;;;;;5049716;28;19960;-73
2022/04/14 13:36:23;;;;;;;;;;;20.00;99.90;;;;;;5083852;28;20288;-72
2022/04/14 13:38:50;;;;;;;;;;;20.50;99.90;;;;;;5049842;28;19931;-73
2022/04/14 13:41:16;;;;;;;;;;;20.80;99.90;;;;;;5050193;28;19929;-73
2022/04/14 13:43:43;;;;;;;;;;;20.60;99.90;;;;;;5049948;28;19932;-72
2022/04/14 13:46:10;;;;;;;;;;;20.30;99.90;;;;;;5050257;28;19925;-73
2022/04/14 13:48:39;;;;;;;;;;;20.00;99.90;;;;;;5049852;28;20408;-72
2022/04/14 13:51:06;;;;;;;;;;;19.70;99.90;;;;;;5049496;28;19935;-73
2022/04/14 13:53:33;;;;;;;;;;;19.50;99.90;;;;;;5049856;28;19925;-72
2022/04/14 13:56:00;;;;;;;;;;;19.80;99.90;;;;;;5049870;28;19932;-73
2022/04/14 13:58:26;;;;;;;;;;;20.40;99.90;;;;;;5049805;28;19924;-73
2022/04/14 14:00:53;;;;;;;;;;;20.60;99.90;;;;;;5049249;28;19929;-73
2022/04/14 14:03:20;;;;;;;;;;;20.50;99.90;;;;;;5038891;28;19940;-73
2022/04/14 14:05:49;;;;;;;;;;;20.40;99.90;;;;;;5076129;28;20027;-73
2022/04/14 14:08:16;;;;;;;;;;;20.50;99.90;;;;;;5040677;28;19933;-73
2022/04/14 14:10:43;;;;;;;;;;;20.50;99.90;;;;;;5041892;28;19929;-73
2022/04/14 14:13:10;;;;;;;;;;;20.60;99.90;;;;;;5047066;28;20292;-73
2022/04/14 14:15:36;;;;;;;;;;;21.30;99.90;;;;;;5049511;28;19929;-73
2022/04/14 14:18:03;;;;;;;;;;;22.30;99.90;;;;;;5049123;28;19936;-74
2022/04/14 14:20:30;;;;;;;;;;;23.30;99.90;;;;;;5042903;28;19932;-73